sensor_id;sensor_type;location;lat;lon;timestamp;temperature;humidity
9118;DHT22;4594;50.994;7.126;2023-04-03T00:01:36;4.30;52.90
9118;DHT22;4594;50.994;7.126;2023-04-03T00:04:06;4.20;52.80
9118;DHT22;4594;50.994;7.126;2023-04-03T00:06:32;4.20;52.80
9118;DHT22;4594;50.994;7.126;2023-04-03T00:08:58;4.10;52.80
9118;DHT22;4594;50.994;7.126;2023-04-03T00:11:24;4.10;52.80
9118;DHT22;4594;50.994;7.126;2023-04-03T00:13:50;4.00;52.80
9118;DHT22;4594;50.994;7.126;2023-04-03T00:16:16;4.00;52.90
9118;DHT22;4594;50.994;7.126;2023-04-03T00:18:42;4.00;53.00
9118;DHT22;4594;50.994;7.126;2023-04-03T00:21:10;4.00;53.00
9118;DHT22;4594;50.994;7.126;2023-04-03T00:23:38;3.90;52.90
9118;DHT22;4594;50.994;7.126;2023-04-03T00:26:04;3.90;53.40
9118;DHT22;4594;50.994;7.126;2023-04-03T00:28:30;3.90;53.40
9118;DHT22;4594;50.994;7.126;2023-04-03T00:30:55;3.90;53.30
9118;DHT22;4594;50.994;7.126;2023-04-03T00:33:21;3.90;53.40
9118;DHT22;4594;50.994;7.126;2023-04-03T00:35:48;3.80;53.40
9118;DHT22;4594;50.994;7.126;2023-04-03T00:38:14;3.80;53.50
9118;DHT22;4594;50.994;7.126;2023-04-03T00:40:44;3.80;53.60
9118;DHT22;4594;50.994;7.126;2023-04-03T00:43:14;3.80;53.70
9118;DHT22;4594;50.994;7.126;2023-04-03T00:45:46;3.80;53.70
9118;DHT22;4594;50.994;7.126;2023-04-03T00:48:17;3.80;53.80
9118;DHT22;4594;50.994;7.126;2023-04-03T00:50:46;3.80;53.90
9118;DHT22;4594;50.994;7.126;2023-04-03T00:53:17;3.80;54.00
9118;DHT22;4594;50.994;7.126;2023-04-03T00:55:49;3.80;53.80
9118;DHT22;4594;50.994;7.126;2023-04-03T00:58:18;3.80;53.90
9118;DHT22;4594;50.994;7.126;2023-04-03T01:00:51;3.90;54.00
9118;DHT22;4594;50.994;7.126;2023-04-03T01:03:23;3.80;53.60
9118;DHT22;4594;50.994;7.126;2023-04-03T01:05:49;3.80;53.80
9118;DHT22;4594;50.994;7.126;2023-04-03T01:08:16;3.80;53.80
9118;DHT22;4594;50.994;7.126;2023-04-03T01:10:42;3.80;53.70
9118;DHT22;4594;50.994;7.126;2023-04-03T01:13:24;3.80;53.50
9118;DHT22;4594;50.994;7.126;2023-04-03T01:15:52;3.80;52.90
9118;DHT22;4594;50.994;7.126;2023-04-03T01:18:18;3.70;53.20
9118;DHT22;4594;50.994;7.126;2023-04-03T01:22:10;3.70;53.10
9118;DHT22;4594;50.994;7.126;2023-04-03T01:26:41;3.60;52.20
9118;DHT22;4594;50.994;7.126;2023-04-03T01:29:07;3.50;52.70
9118;DHT22;4594;50.994;7.126;2023-04-03T01:31:53;3.50;52.70
9118;DHT22;4594;50.994;7.126;2023-04-03T01:34:21;3.50;51.90
9118;DHT22;4594;50.994;7.126;2023-04-03T01:36:47;3.40;52.60
9118;DHT22;4594;50.994;7.126;2023-04-03T01:39:13;3.40;52.60
9118;DHT22;4594;50.994;7.126;2023-04-03T01:41:39;3.30;52.50
9118;DHT22;4594;50.994;7.126;2023-04-03T01:44:05;3.30;52.60
9118;DHT22;4594;50.994;7.126;2023-04-03T01:46:31;3.20;52.60
9118;DHT22;4594;50.994;7.126;2023-04-03T01:48:57;3.20;52.60
9118;DHT22;4594;50.994;7.126;2023-04-03T01:51:23;3.20;52.60
9118;DHT22;4594;50.994;7.126;2023-04-03T01:53:48;3.20;52.60
9118;DHT22;4594;50.994;7.126;2023-04-03T01:56:14;3.10;52.50
9118;DHT22;4594;50.994;7.126;2023-04-03T01:58:40;3.10;52.60
9118;DHT22;4594;50.994;7.126;2023-04-03T02:01:06;3.10;52.70
9118;DHT22;4594;50.994;7.126;2023-04-03T02:03:32;3.00;52.60
9118;DHT22;4594;50.994;7.126;2023-04-03T02:05:58;3.00;52.60
9118;DHT22;4594;50.994;7.126;2023-04-03T02:08:25;3.00;52.60
9118;DHT22;4594;50.994;7.126;2023-04-03T02:10:51;2.90;52.60
9118;DHT22;4594;50.994;7.126;2023-04-03T02:13:17;2.90;52.60
9118;DHT22;4594;50.994;7.126;2023-04-03T02:15:43;2.90;52.60
9118;DHT22;4594;50.994;7.126;2023-04-03T02:18:10;2.90;52.70
9118;DHT22;4594;50.994;7.126;2023-04-03T02:20:37;2.80;52.60
9118;DHT22;4594;50.994;7.126;2023-04-03T02:23:03;2.80;52.70
9118;DHT22;4594;50.994;7.126;2023-04-03T02:25:30;2.80;52.70
9118;DHT22;4594;50.994;7.126;2023-04-03T02:27:57;2.80;52.70
9118;DHT22;4594;50.994;7.126;2023-04-03T02:30:23;2.70;52.70
9118;DHT22;4594;50.994;7.126;2023-04-03T02:32:49;2.70;52.70
9118;DHT22;4594;50.994;7.126;2023-04-03T02:35:15;2.70;52.80
9118;DHT22;4594;50.994;7.126;2023-04-03T02:37:41;2.70;52.80
9118;DHT22;4594;50.994;7.126;2023-04-03T02:40:08;2.60;52.70
9118;DHT22;4594;50.994;7.126;2023-04-03T02:42:34;2.60;52.60
9118;DHT22;4594;50.994;7.126;2023-04-03T02:45:00;2.60;52.70
9118;DHT22;4594;50.994;7.126;2023-04-03T02:47:27;2.60;52.70
9118;DHT22;4594;50.994;7.126;2023-04-03T02:49:53;2.60;52.70
9118;DHT22;4594;50.994;7.126;2023-04-03T02:52:19;2.50;52.70
9118;DHT22;4594;50.994;7.126;2023-04-03T02:54:45;2.50;52.70
9118;DHT22;4594;50.994;7.126;2023-04-03T02:57:11;2.50;52.80
9118;DHT22;4594;50.994;7.126;2023-04-03T02:59:38;2.50;53.00
9118;DHT22;4594;50.994;7.126;2023-04-03T03:02:07;2.50;53.00
9118;DHT22;4594;50.994;7.126;2023-04-03T03:04:34;2.50;53.10
9118;DHT22;4594;50.994;7.126;2023-04-03T03:07:01;2.50;53.20
9118;DHT22;4594;50.994;7.126;2023-04-03T03:09:26;2.40;53.10
9118;DHT22;4594;50.994;7.126;2023-04-03T03:11:52;2.40;53.20
9118;DHT22;4594;50.994;7.126;2023-04-03T03:14:18;2.40;53.20
9118;DHT22;4594;50.994;7.126;2023-04-03T03:16:44;2.40;53.30
9118;DHT22;4594;50.994;7.126;2023-04-03T03:19:10;2.50;53.40
9118;DHT22;4594;50.994;7.126;2023-04-03T03:21:36;2.50;53.50
9118;DHT22;4594;50.994;7.126;2023-04-03T03:24:02;2.50;53.40
9118;DHT22;4594;50.994;7.126;2023-04-03T03:26:27;2.50;53.70
9118;DHT22;4594;50.994;7.126;2023-04-03T03:28:53;2.50;54.00
9118;DHT22;4594;50.994;7.126;2023-04-03T03:31:19;2.50;54.10
9118;DHT22;4594;50.994;7.126;2023-04-03T03:33:44;2.60;54.30
9118;DHT22;4594;50.994;7.126;2023-04-03T03:36:10;2.60;54.20
9118;DHT22;4594;50.994;7.126;2023-04-03T03:38:36;2.60;54.30
9118;DHT22;4594;50.994;7.126;2023-04-03T03:41:02;2.70;54.40
9118;DHT22;4594;50.994;7.126;2023-04-03T03:43:28;2.70;54.40
9118;DHT22;4594;50.994;7.126;2023-04-03T03:45:54;2.80;54.50
9118;DHT22;4594;50.994;7.126;2023-04-03T03:48:21;2.80;54.50
9118;DHT22;4594;50.994;7.126;2023-04-03T03:50:47;2.80;54.40
9118;DHT22;4594;50.994;7.126;2023-04-03T03:53:14;2.90;54.50
9118;DHT22;4594;50.994;7.126;2023-04-03T03:55:40;2.90;54.40
9118;DHT22;4594;50.994;7.126;2023-04-03T03:58:06;2.90;54.50
9118;DHT22;4594;50.994;7.126;2023-04-03T04:00:32;2.90;54.50
9118;DHT22;4594;50.994;7.126;2023-04-03T04:02:58;3.00;54.60
9118;DHT22;4594;50.994;7.126;2023-04-03T04:05:23;3.00;54.50
9118;DHT22;4594;50.994;7.126;2023-04-03T04:07:49;3.00;54.50
9118;DHT22;4594;50.994;7.126;2023-04-03T04:10:15;3.00;54.50
9118;DHT22;4594;50.994;7.126;2023-04-03T04:12:41;3.10;54.50
9118;DHT22;4594;50.994;7.126;2023-04-03T04:15:07;3.10;54.40
9118;DHT22;4594;50.994;7.126;2023-04-03T04:17:33;3.10;54.40
9118;DHT22;4594;50.994;7.126;2023-04-03T04:20:01;3.10;54.30
9118;DHT22;4594;50.994;7.126;2023-04-03T04:22:28;3.20;54.70
9118;DHT22;4594;50.994;7.126;2023-04-03T04:24:53;3.20;54.30
9118;DHT22;4594;50.994;7.126;2023-04-03T04:27:19;3.20;54.30
9118;DHT22;4594;50.994;7.126;2023-04-03T04:29:45;3.20;54.50
9118;DHT22;4594;50.994;7.126;2023-04-03T04:32:11;3.20;54.30
9118;DHT22;4594;50.994;7.126;2023-04-03T04:34:37;3.30;54.50
9118;DHT22;4594;50.994;7.126;2023-04-03T04:37:03;3.30;54.30
9118;DHT22;4594;50.994;7.126;2023-04-03T04:39:28;3.30;54.30
9118;DHT22;4594;50.994;7.126;2023-04-03T04:41:54;3.30;54.20
9118;DHT22;4594;50.994;7.126;2023-04-03T04:44:20;3.30;54.30
9118;DHT22;4594;50.994;7.126;2023-04-03T04:46:46;3.30;54.70
9118;DHT22;4594;50.994;7.126;2023-04-03T04:49:11;3.40;55.00
9118;DHT22;4594;50.994;7.126;2023-04-03T04:51:37;3.40;55.10
9118;DHT22;4594;50.994;7.126;2023-04-03T04:54:03;3.40;55.00
9118;DHT22;4594;50.994;7.126;2023-04-03T04:56:28;3.40;55.00
9118;DHT22;4594;50.994;7.126;2023-04-03T04:58:54;3.50;55.10
9118;DHT22;4594;50.994;7.126;2023-04-03T05:01:20;3.50;55.00
9118;DHT22;4594;50.994;7.126;2023-04-03T05:03:45;3.60;55.00
9118;DHT22;4594;50.994;7.126;2023-04-03T05:06:13;3.60;54.90
9118;DHT22;4594;50.994;7.126;2023-04-03T05:08:38;3.60;54.80
9118;DHT22;4594;50.994;7.126;2023-04-03T05:11:04;3.70;54.60
9118;DHT22;4594;50.994;7.126;2023-04-03T05:13:30;3.70;54.60
9118;DHT22;4594;50.994;7.126;2023-04-03T05:15:56;3.70;54.60
9118;DHT22;4594;50.994;7.126;2023-04-03T05:18:22;3.70;54.60
9118;DHT22;4594;50.994;7.126;2023-04-03T05:20:50;3.70;54.50
9118;DHT22;4594;50.994;7.126;2023-04-03T05:23:17;3.70;54.30
9118;DHT22;4594;50.994;7.126;2023-04-03T05:25:42;3.70;54.60
9118;DHT22;4594;50.994;7.126;2023-04-03T05:28:10;3.80;54.50
9118;DHT22;4594;50.994;7.126;2023-04-03T05:30:36;3.80;54.40
9118;DHT22;4594;50.994;7.126;2023-04-03T05:33:02;3.80;54.50
9118;DHT22;4594;50.994;7.126;2023-04-03T05:35:28;3.80;54.50
9118;DHT22;4594;50.994;7.126;2023-04-03T05:37:54;4.10;54.70
9118;DHT22;4594;50.994;7.126;2023-04-03T05:40:20;3.80;54.60
9118;DHT22;4594;50.994;7.126;2023-04-03T05:42:45;3.80;54.50
9118;DHT22;4594;50.994;7.126;2023-04-03T05:45:11;3.90;54.40
9118;DHT22;4594;50.994;7.126;2023-04-03T05:47:37;3.90;54.50
9118;DHT22;4594;50.994;7.126;2023-04-03T05:50:03;3.90;54.50
9118;DHT22;4594;50.994;7.126;2023-04-03T05:52:33;3.90;54.40
9118;DHT22;4594;50.994;7.126;2023-04-03T05:55:02;3.90;54.40
9118;DHT22;4594;50.994;7.126;2023-04-03T05:57:28;3.90;54.60
9118;DHT22;4594;50.994;7.126;2023-04-03T05:59:53;4.00;54.90
9118;DHT22;4594;50.994;7.126;2023-04-03T06:02:21;4.00;55.30
9118;DHT22;4594;50.994;7.126;2023-04-03T06:04:48;4.10;55.70
9118;DHT22;4594;50.994;7.126;2023-04-03T06:07:19;4.20;56.40
9118;DHT22;4594;50.994;7.126;2023-04-03T06:09:48;4.30;56.10
9118;DHT22;4594;50.994;7.126;2023-04-03T06:12:16;4.60;57.60
9118;DHT22;4594;50.994;7.126;2023-04-03T06:14:43;4.80;58.60
9118;DHT22;4594;50.994;7.126;2023-04-03T06:17:08;5.10;59.30
9118;DHT22;4594;50.994;7.126;2023-04-03T06:19:35;5.40;60.30
9118;DHT22;4594;50.994;7.126;2023-04-03T06:22:01;5.80;61.60
9118;DHT22;4594;50.994;7.126;2023-04-03T06:24:28;6.20;62.50
9118;DHT22;4594;50.994;7.126;2023-04-03T06:26:55;6.60;63.40
9118;DHT22;4594;50.994;7.126;2023-04-03T06:29:21;7.00;64.00
9118;DHT22;4594;50.994;7.126;2023-04-03T06:31:49;7.40;64.40
9118;DHT22;4594;50.994;7.126;2023-04-03T06:34:15;7.80;64.20
9118;DHT22;4594;50.994;7.126;2023-04-03T06:36:42;8.20;64.70
9118;DHT22;4594;50.994;7.126;2023-04-03T06:39:16;8.60;64.20
9118;DHT22;4594;50.994;7.126;2023-04-03T06:41:43;8.80;61.80
9118;DHT22;4594;50.994;7.126;2023-04-03T06:44:10;9.20;62.80
9118;DHT22;4594;50.994;7.126;2023-04-03T06:46:41;9.60;62.10
9118;DHT22;4594;50.994;7.126;2023-04-03T06:49:07;9.90;62.50
9118;DHT22;4594;50.994;7.126;2023-04-03T06:51:34;10.30;60.60
9118;DHT22;4594;50.994;7.126;2023-04-03T06:54:01;10.50;59.90
9118;DHT22;4594;50.994;7.126;2023-04-03T06:56:27;10.80;59.70
9118;DHT22;4594;50.994;7.126;2023-04-03T06:58:54;11.10;60.80
9118;DHT22;4594;50.994;7.126;2023-04-03T07:01:21;11.30;61.40
9118;DHT22;4594;50.994;7.126;2023-04-03T07:03:47;11.60;60.90
9118;DHT22;4594;50.994;7.126;2023-04-03T07:06:15;11.70;59.30
9118;DHT22;4594;50.994;7.126;2023-04-03T07:08:42;11.90;59.00
9118;DHT22;4594;50.994;7.126;2023-04-03T07:11:09;12.10;58.70
9118;DHT22;4594;50.994;7.126;2023-04-03T07:13:35;12.20;59.10
9118;DHT22;4594;50.994;7.126;2023-04-03T07:16:02;12.30;57.80
9118;DHT22;4594;50.994;7.126;2023-04-03T07:18:30;12.50;58.90
9118;DHT22;4594;50.994;7.126;2023-04-03T07:20:57;12.70;61.00
9118;DHT22;4594;50.994;7.126;2023-04-03T07:23:23;13.00;62.40
9118;DHT22;4594;50.994;7.126;2023-04-03T07:25:51;13.30;62.80
9118;DHT22;4594;50.994;7.126;2023-04-03T07:28:18;13.60;61.20
9118;DHT22;4594;50.994;7.126;2023-04-03T07:30:49;13.90;60.70
9118;DHT22;4594;50.994;7.126;2023-04-03T07:33:22;14.20;61.00
9118;DHT22;4594;50.994;7.126;2023-04-03T07:35:48;14.50;59.80
9118;DHT22;4594;50.994;7.126;2023-04-03T07:38:14;14.90;60.90
9118;DHT22;4594;50.994;7.126;2023-04-03T07:40:45;15.20;62.30
9118;DHT22;4594;50.994;7.126;2023-04-03T07:43:12;15.50;60.50
9118;DHT22;4594;50.994;7.126;2023-04-03T07:45:38;15.80;60.30
9118;DHT22;4594;50.994;7.126;2023-04-03T07:48:04;16.10;61.10
9118;DHT22;4594;50.994;7.126;2023-04-03T07:50:30;16.40;61.30
9118;DHT22;4594;50.994;7.126;2023-04-03T07:52:57;16.60;57.90
9118;DHT22;4594;50.994;7.126;2023-04-03T07:55:24;16.90;59.30
9118;DHT22;4594;50.994;7.126;2023-04-03T07:57:50;17.10;59.00
9118;DHT22;4594;50.994;7.126;2023-04-03T08:00:17;17.30;59.20
9118;DHT22;4594;50.994;7.126;2023-04-03T08:02:44;17.60;58.90
9118;DHT22;4594;50.994;7.126;2023-04-03T08:05:10;17.80;58.50
9118;DHT22;4594;50.994;7.126;2023-04-03T08:07:37;18.00;57.30
9118;DHT22;4594;50.994;7.126;2023-04-03T08:10:03;18.20;56.00
9118;DHT22;4594;50.994;7.126;2023-04-03T08:12:29;18.40;56.90
9118;DHT22;4594;50.994;7.126;2023-04-03T08:14:57;18.50;56.20
9118;DHT22;4594;50.994;7.126;2023-04-03T08:17:24;18.70;55.90
9118;DHT22;4594;50.994;7.126;2023-04-03T08:19:50;18.90;57.00
9118;DHT22;4594;50.994;7.126;2023-04-03T08:22:16;19.10;56.60
9118;DHT22;4594;50.994;7.126;2023-04-03T08:24:41;19.20;55.70
9118;DHT22;4594;50.994;7.126;2023-04-03T08:27:07;19.30;54.40
9118;DHT22;4594;50.994;7.126;2023-04-03T08:29:33;19.40;54.50
9118;DHT22;4594;50.994;7.126;2023-04-03T08:31:58;19.60;54.50
9118;DHT22;4594;50.994;7.126;2023-04-03T08:34:24;19.80;55.20
9118;DHT22;4594;50.994;7.126;2023-04-03T08:36:50;19.90;54.30
9118;DHT22;4594;50.994;7.126;2023-04-03T08:39:15;20.10;55.60
9118;DHT22;4594;50.994;7.126;2023-04-03T08:41:43;20.30;56.00
9118;DHT22;4594;50.994;7.126;2023-04-03T08:49:45;21.00;52.30
9118;DHT22;4594;50.994;7.126;2023-04-03T08:52:24;21.10;48.40
9118;DHT22;4594;50.994;7.126;2023-04-03T08:55:02;21.20;48.70
9118;DHT22;4594;50.994;7.126;2023-04-03T08:57:43;21.30;49.90
9118;DHT22;4594;50.994;7.126;2023-04-03T09:02:48;21.50;50.70
9118;DHT22;4594;50.994;7.126;2023-04-03T09:12:04;21.90;47.50
9118;DHT22;4594;50.994;7.126;2023-04-03T09:14:59;22.10;50.10
9118;DHT22;4594;50.994;7.126;2023-04-03T09:20:16;22.50;48.00
9118;DHT22;4594;50.994;7.126;2023-04-03T09:22:47;22.50;46.70
9118;DHT22;4594;50.994;7.126;2023-04-03T09:27:44;22.60;46.30
9118;DHT22;4594;50.994;7.126;2023-04-03T09:30:19;22.70;48.20
9118;DHT22;4594;50.994;7.126;2023-04-03T09:32:50;22.70;45.60
9118;DHT22;4594;50.994;7.126;2023-04-03T09:35:24;22.90;49.00
9118;DHT22;4594;50.994;7.126;2023-04-03T09:37:55;23.10;47.80
9118;DHT22;4594;50.994;7.126;2023-04-03T09:42:54;23.30;46.70
9118;DHT22;4594;50.994;7.126;2023-04-03T09:45:34;23.30;46.40
9118;DHT22;4594;50.994;7.126;2023-04-03T09:51:02;23.40;44.60
9118;DHT22;4594;50.994;7.126;2023-04-03T09:53:41;23.50;45.40
9118;DHT22;4594;50.994;7.126;2023-04-03T09:58:44;23.80;48.20
9118;DHT22;4594;50.994;7.126;2023-04-03T10:04:16;24.10;47.60
9118;DHT22;4594;50.994;7.126;2023-04-03T10:06:49;24.20;44.30
9118;DHT22;4594;50.994;7.126;2023-04-03T10:09:24;24.40;45.70
9118;DHT22;4594;50.994;7.126;2023-04-03T10:12:09;24.50;46.70
9118;DHT22;4594;50.994;7.126;2023-04-03T10:14:57;24.80;46.80
9118;DHT22;4594;50.994;7.126;2023-04-03T10:23:21;25.00;47.40
9118;DHT22;4594;50.994;7.126;2023-04-03T10:31:41;25.00;43.90
9118;DHT22;4594;50.994;7.126;2023-04-03T10:34:28;25.10;44.30
9118;DHT22;4594;50.994;7.126;2023-04-03T10:43:02;24.20;39.60
9118;DHT22;4594;50.994;7.126;2023-04-03T10:51:48;21.90;37.10
9118;DHT22;4594;50.994;7.126;2023-04-03T10:54:19;21.10;35.40
9118;DHT22;4594;50.994;7.126;2023-04-03T10:56:58;20.40;37.20
9118;DHT22;4594;50.994;7.126;2023-04-03T11:02:30;19.10;36.40
9118;DHT22;4594;50.994;7.126;2023-04-03T11:05:06;18.50;36.40
9118;DHT22;4594;50.994;7.126;2023-04-03T11:07:45;18.00;35.90
9118;DHT22;4594;50.994;7.126;2023-04-03T11:10:41;17.50;36.20
9118;DHT22;4594;50.994;7.126;2023-04-03T11:13:24;17.00;35.90
9118;DHT22;4594;50.994;7.126;2023-04-03T11:15:57;16.60;35.40
9118;DHT22;4594;50.994;7.126;2023-04-03T11:18:35;16.20;36.80
9118;DHT22;4594;50.994;7.126;2023-04-03T11:21:24;15.90;36.10
9118;DHT22;4594;50.994;7.126;2023-04-03T11:23:57;15.50;34.50
9118;DHT22;4594;50.994;7.126;2023-04-03T11:26:29;15.40;36.20
9118;DHT22;4594;50.994;7.126;2023-04-03T11:29:07;15.10;35.70
9118;DHT22;4594;50.994;7.126;2023-04-03T11:31:45;14.90;36.00
9118;DHT22;4594;50.994;7.126;2023-04-03T11:34:40;14.60;36.10
9118;DHT22;4594;50.994;7.126;2023-04-03T11:37:35;14.40;36.20
9118;DHT22;4594;50.994;7.126;2023-04-03T11:51:45;13.50;36.60
9118;DHT22;4594;50.994;7.126;2023-04-03T11:53:46;13.40;36.90
9118;DHT22;4594;50.994;7.126;2023-04-03T12:02:22;13.10;35.80
9118;DHT22;4594;50.994;7.126;2023-04-03T12:05:28;13.00;35.90
9118;DHT22;4594;50.994;7.126;2023-04-03T12:24:31;12.40;36.60
9118;DHT22;4594;50.994;7.126;2023-04-03T12:27:02;12.30;36.30
9118;DHT22;4594;50.994;7.126;2023-04-03T12:38:16;12.10;36.90
9118;DHT22;4594;50.994;7.126;2023-04-03T12:44:18;12.00;37.20
9118;DHT22;4594;50.994;7.126;2023-04-03T12:46:51;12.00;36.10
9118;DHT22;4594;50.994;7.126;2023-04-03T12:49:39;11.90;36.30
9118;DHT22;4594;50.994;7.126;2023-04-03T12:52:30;11.90;34.60
9118;DHT22;4594;50.994;7.126;2023-04-03T12:54:56;11.90;35.40
9118;DHT22;4594;50.994;7.126;2023-04-03T12:57:26;11.80;36.70
9118;DHT22;4594;50.994;7.126;2023-04-03T12:59:55;11.90;36.50
9118;DHT22;4594;50.994;7.126;2023-04-03T13:04:58;11.80;36.60
9118;DHT22;4594;50.994;7.126;2023-04-03T13:07:35;11.80;36.20
9118;DHT22;4594;50.994;7.126;2023-04-03T13:12:34;11.60;36.30
9118;DHT22;4594;50.994;7.126;2023-04-03T13:15:12;11.60;36.50
9118;DHT22;4594;50.994;7.126;2023-04-03T13:17:41;11.60;36.50
9118;DHT22;4594;50.994;7.126;2023-04-03T13:20:16;11.60;36.90
9118;DHT22;4594;50.994;7.126;2023-04-03T13:25:28;11.60;35.80
9118;DHT22;4594;50.994;7.126;2023-04-03T13:27:56;11.50;36.30
9118;DHT22;4594;50.994;7.126;2023-04-03T13:30:31;11.50;37.20
9118;DHT22;4594;50.994;7.126;2023-04-03T13:33:02;11.50;36.80
9118;DHT22;4594;50.994;7.126;2023-04-03T13:35:39;11.50;37.50
9118;DHT22;4594;50.994;7.126;2023-04-03T13:38:29;11.60;36.90
9118;DHT22;4594;50.994;7.126;2023-04-03T13:41:01;11.60;35.90
9118;DHT22;4594;50.994;7.126;2023-04-03T13:43:35;11.60;37.70
9118;DHT22;4594;50.994;7.126;2023-04-03T13:46:23;11.60;37.10
9118;DHT22;4594;50.994;7.126;2023-04-03T13:48:54;11.60;36.80
9118;DHT22;4594;50.994;7.126;2023-04-03T13:51:27;11.60;37.80
9118;DHT22;4594;50.994;7.126;2023-04-03T13:54:00;11.60;37.40
9118;DHT22;4594;50.994;7.126;2023-04-03T13:56:38;11.60;37.60
9118;DHT22;4594;50.994;7.126;2023-04-03T14:01:47;11.70;37.60
9118;DHT22;4594;50.994;7.126;2023-04-03T14:04:44;11.70;37.70
9118;DHT22;4594;50.994;7.126;2023-04-03T14:07:10;11.80;37.90
9118;DHT22;4594;50.994;7.126;2023-04-03T14:09:37;11.80;38.70
9118;DHT22;4594;50.994;7.126;2023-04-03T14:12:24;11.80;38.70
9118;DHT22;4594;50.994;7.126;2023-04-03T14:15:04;11.70;37.70
9118;DHT22;4594;50.994;7.126;2023-04-03T14:17:37;11.80;37.00
9118;DHT22;4594;50.994;7.126;2023-04-03T14:20:04;11.80;37.80
9118;DHT22;4594;50.994;7.126;2023-04-03T14:22:32;11.80;37.90
9118;DHT22;4594;50.994;7.126;2023-04-03T14:25:00;11.80;37.90
9118;DHT22;4594;50.994;7.126;2023-04-03T14:27:29;11.70;37.80
9118;DHT22;4594;50.994;7.126;2023-04-03T14:30:00;11.70;37.70
9118;DHT22;4594;50.994;7.126;2023-04-03T14:32:28;11.70;37.70
9118;DHT22;4594;50.994;7.126;2023-04-03T14:34:55;11.80;37.60
9118;DHT22;4594;50.994;7.126;2023-04-03T14:37:28;11.70;37.80
9118;DHT22;4594;50.994;7.126;2023-04-03T14:39:56;11.70;37.70
9118;DHT22;4594;50.994;7.126;2023-04-03T14:42:31;11.70;37.00
9118;DHT22;4594;50.994;7.126;2023-04-03T14:45:00;11.70;37.00
9118;DHT22;4594;50.994;7.126;2023-04-03T14:47:29;11.70;37.30
9118;DHT22;4594;50.994;7.126;2023-04-03T14:49:55;11.70;37.90
9118;DHT22;4594;50.994;7.126;2023-04-03T14:52:26;11.70;38.50
9118;DHT22;4594;50.994;7.126;2023-04-03T14:54:57;11.80;37.70
9118;DHT22;4594;50.994;7.126;2023-04-03T14:57:25;11.70;38.10
9118;DHT22;4594;50.994;7.126;2023-04-03T14:59:52;11.70;37.80
9118;DHT22;4594;50.994;7.126;2023-04-03T15:04:57;11.70;36.60
9118;DHT22;4594;50.994;7.126;2023-04-03T15:07:27;11.70;37.90
9118;DHT22;4594;50.994;7.126;2023-04-03T15:09:55;11.70;37.60
9118;DHT22;4594;50.994;7.126;2023-04-03T15:12:24;11.60;38.00
9118;DHT22;4594;50.994;7.126;2023-04-03T15:14:50;11.60;37.40
9118;DHT22;4594;50.994;7.126;2023-04-03T15:17:18;11.60;37.50
9118;DHT22;4594;50.994;7.126;2023-04-03T15:19:46;11.60;37.50
9118;DHT22;4594;50.994;7.126;2023-04-03T15:22:17;11.60;38.20
9118;DHT22;4594;50.994;7.126;2023-04-03T15:24:44;11.60;37.40
9118;DHT22;4594;50.994;7.126;2023-04-03T15:27:12;11.50;38.10
9118;DHT22;4594;50.994;7.126;2023-04-03T15:29:39;11.50;37.90
9118;DHT22;4594;50.994;7.126;2023-04-03T15:32:08;11.50;37.80
9118;DHT22;4594;50.994;7.126;2023-04-03T15:34:35;11.50;38.00
9118;DHT22;4594;50.994;7.126;2023-04-03T15:37:01;11.50;37.90
9118;DHT22;4594;50.994;7.126;2023-04-03T15:39:27;11.50;38.40
9118;DHT22;4594;50.994;7.126;2023-04-03T15:41:53;11.50;38.00
9118;DHT22;4594;50.994;7.126;2023-04-03T15:44:20;11.50;38.00
9118;DHT22;4594;50.994;7.126;2023-04-03T15:46:47;11.50;37.90
9118;DHT22;4594;50.994;7.126;2023-04-03T15:49:17;11.50;37.80
9118;DHT22;4594;50.994;7.126;2023-04-03T15:51:44;11.50;38.10
9118;DHT22;4594;50.994;7.126;2023-04-03T15:54:10;11.50;38.40
9118;DHT22;4594;50.994;7.126;2023-04-03T15:56:36;11.50;38.00
9118;DHT22;4594;50.994;7.126;2023-04-03T15:59:02;11.50;37.70
9118;DHT22;4594;50.994;7.126;2023-04-03T16:01:29;11.50;37.90
9118;DHT22;4594;50.994;7.126;2023-04-03T16:03:54;11.40;38.00
9118;DHT22;4594;50.994;7.126;2023-04-03T16:06:21;11.40;38.30
9118;DHT22;4594;50.994;7.126;2023-04-03T16:08:47;11.40;38.30
9118;DHT22;4594;50.994;7.126;2023-04-03T16:11:14;11.40;38.10
9118;DHT22;4594;50.994;7.126;2023-04-03T16:13:40;11.40;38.00
9118;DHT22;4594;50.994;7.126;2023-04-03T16:16:07;11.40;38.30
9118;DHT22;4594;50.994;7.126;2023-04-03T16:18:34;11.30;38.00
9118;DHT22;4594;50.994;7.126;2023-04-03T16:21:01;11.30;38.10
9118;DHT22;4594;50.994;7.126;2023-04-03T16:23:27;11.30;38.30
9118;DHT22;4594;50.994;7.126;2023-04-03T16:25:53;11.30;38.30
9118;DHT22;4594;50.994;7.126;2023-04-03T16:28:19;11.30;37.00
9118;DHT22;4594;50.994;7.126;2023-04-03T16:30:46;11.20;37.50
9118;DHT22;4594;50.994;7.126;2023-04-03T16:33:13;11.30;37.60
9118;DHT22;4594;50.994;7.126;2023-04-03T16:35:39;11.20;37.80
9118;DHT22;4594;50.994;7.126;2023-04-03T16:38:07;11.10;37.70
9118;DHT22;4594;50.994;7.126;2023-04-03T16:40:33;11.10;37.80
9118;DHT22;4594;50.994;7.126;2023-04-03T16:43:03;11.10;38.00
9118;DHT22;4594;50.994;7.126;2023-04-03T16:45:28;11.00;38.00
9118;DHT22;4594;50.994;7.126;2023-04-03T16:47:54;11.00;38.20
9118;DHT22;4594;50.994;7.126;2023-04-03T16:50:20;11.00;38.20
9118;DHT22;4594;50.994;7.126;2023-04-03T16:52:46;10.90;38.00
9118;DHT22;4594;50.994;7.126;2023-04-03T16:55:12;10.90;38.00
9118;DHT22;4594;50.994;7.126;2023-04-03T16:57:38;10.90;38.00
9118;DHT22;4594;50.994;7.126;2023-04-03T17:00:04;10.80;37.90
9118;DHT22;4594;50.994;7.126;2023-04-03T17:02:31;10.80;37.50
9118;DHT22;4594;50.994;7.126;2023-04-03T17:04:56;10.80;38.00
9118;DHT22;4594;50.994;7.126;2023-04-03T17:07:24;10.80;38.00
9118;DHT22;4594;50.994;7.126;2023-04-03T17:09:51;10.70;37.90
9118;DHT22;4594;50.994;7.126;2023-04-03T17:12:19;10.70;37.90
9118;DHT22;4594;50.994;7.126;2023-04-03T17:14:45;10.60;37.90
9118;DHT22;4594;50.994;7.126;2023-04-03T17:17:13;10.60;38.20
9118;DHT22;4594;50.994;7.126;2023-04-03T17:19:39;10.60;38.00
9118;DHT22;4594;50.994;7.126;2023-04-03T17:22:08;10.50;38.10
9118;DHT22;4594;50.994;7.126;2023-04-03T17:24:34;10.50;37.60
9118;DHT22;4594;50.994;7.126;2023-04-03T17:27:01;10.40;37.80
9118;DHT22;4594;50.994;7.126;2023-04-03T17:29:28;10.40;37.70
9118;DHT22;4594;50.994;7.126;2023-04-03T17:31:54;10.40;37.70
9118;DHT22;4594;50.994;7.126;2023-04-03T17:34:20;10.30;37.80
9118;DHT22;4594;50.994;7.126;2023-04-03T17:36:46;10.30;37.80
9118;DHT22;4594;50.994;7.126;2023-04-03T17:39:12;10.20;37.70
9118;DHT22;4594;50.994;7.126;2023-04-03T17:41:38;10.20;37.70
9118;DHT22;4594;50.994;7.126;2023-04-03T17:44:04;10.20;37.60
9118;DHT22;4594;50.994;7.126;2023-04-03T17:46:29;10.10;37.90
9118;DHT22;4594;50.994;7.126;2023-04-03T17:48:56;10.00;37.80
9118;DHT22;4594;50.994;7.126;2023-04-03T17:51:24;10.00;37.80
9118;DHT22;4594;50.994;7.126;2023-04-03T17:53:51;10.00;38.00
9118;DHT22;4594;50.994;7.126;2023-04-03T17:56:22;9.90;38.60
9118;DHT22;4594;50.994;7.126;2023-04-03T17:58:49;9.80;37.80
9118;DHT22;4594;50.994;7.126;2023-04-03T18:03:47;9.70;38.70
9118;DHT22;4594;50.994;7.126;2023-04-03T18:06:16;9.70;38.50
9118;DHT22;4594;50.994;7.126;2023-04-03T18:08:46;9.60;38.30
9118;DHT22;4594;50.994;7.126;2023-04-03T18:11:15;9.60;38.10
9118;DHT22;4594;50.994;7.126;2023-04-03T18:13:42;9.50;38.30
9118;DHT22;4594;50.994;7.126;2023-04-03T18:16:10;9.40;38.30
9118;DHT22;4594;50.994;7.126;2023-04-03T18:18:37;9.40;38.40
9118;DHT22;4594;50.994;7.126;2023-04-03T18:21:03;9.30;38.00
9118;DHT22;4594;50.994;7.126;2023-04-03T18:23:31;9.20;38.20